createdAt,value
2018-11-12T00:01:16.193Z,6.30
2018-11-12T00:03:45.900Z,6.27
2018-11-12T00:06:15.574Z,7.53
2018-11-12T00:08:45.188Z,4.87
2018-11-12T00:11:14.718Z,6.57
2018-11-12T00:13:44.327Z,6.23
2018-11-12T00:16:13.877Z,6.97
2018-11-12T00:18:43.822Z,6.13
2018-11-12T00:21:13.513Z,6.30
2018-11-12T00:23:43.078Z,5.70
2018-11-12T00:26:12.904Z,7.10
2018-11-12T00:28:42.723Z,6.27
2018-11-12T00:31:12.457Z,7.50
2018-11-12T00:33:42.148Z,5.77
2018-11-12T00:36:11.860Z,6.40
2018-11-12T00:38:41.632Z,5.20
2018-11-12T00:41:11.421Z,4.37
2018-11-12T00:43:41.234Z,5.73
2018-11-12T00:46:11.128Z,5.13
2018-11-12T00:48:41.324Z,4.60
2018-11-12T00:51:10.985Z,6.47
2018-11-12T00:53:40.493Z,4.87
2018-11-12T00:56:10.213Z,6.47
2018-11-12T00:58:40.425Z,6.27
2018-11-12T01:01:10.748Z,5.47
2018-11-12T01:03:40.680Z,4.20
2018-11-12T01:06:10.182Z,4.87
2018-11-12T01:08:39.871Z,6.07
2018-11-12T01:11:10.513Z,6.10
2018-11-12T01:13:39.984Z,6.80
2018-11-12T01:16:10.180Z,6.50
2018-11-12T01:18:39.812Z,6.20
2018-11-12T01:21:09.377Z,5.63
2018-11-12T01:23:38.949Z,6.80
2018-11-12T01:26:08.530Z,6.40
2018-11-12T01:28:38.089Z,5.53
2018-11-12T01:31:07.941Z,6.00
2018-11-12T01:33:38.140Z,5.53
2018-11-12T01:36:07.803Z,4.80
2018-11-12T01:38:37.306Z,3.97
2018-11-12T01:41:07.491Z,4.93
2018-11-12T01:43:37.052Z,4.43
2018-11-12T01:46:06.632Z,4.27
2018-11-12T01:48:36.319Z,4.47
2018-11-12T01:51:06.164Z,4.10
2018-11-12T01:53:36.042Z,3.93
2018-11-12T01:56:06.127Z,5.00
2018-11-12T01:58:36.054Z,4.90
2018-11-12T02:01:05.523Z,3.63
2018-11-12T02:03:35.150Z,4.63
2018-11-12T02:06:04.717Z,4.53
2018-11-12T02:08:34.196Z,4.27
2018-11-12T02:11:04.617Z,4.23
2018-11-12T02:13:34.234Z,4.63
2018-11-12T02:16:03.885Z,4.70
2018-11-12T02:18:33.382Z,4.70
2018-11-12T02:21:03.655Z,4.53
2018-11-12T02:23:33.208Z,3.87
2018-11-12T02:26:02.915Z,4.33
2018-11-12T02:28:32.447Z,4.87
2018-11-12T02:31:02.139Z,4.13
2018-11-12T02:33:31.898Z,4.13
2018-11-12T02:36:03.027Z,5.30
2018-11-12T02:38:32.892Z,3.97
2018-11-12T02:41:02.571Z,3.87
2018-11-12T02:43:32.073Z,3.43
2018-11-12T02:46:01.669Z,4.70
2018-11-12T02:48:31.493Z,4.30
2018-11-12T02:51:01.078Z,5.20
2018-11-12T02:53:30.723Z,5.87
2018-11-12T02:56:00.349Z,4.30
2018-11-12T02:58:30.167Z,5.70
2018-11-12T03:00:59.853Z,3.37
2018-11-12T03:03:29.445Z,3.70
2018-11-12T03:05:59.144Z,4.93
2018-11-12T03:08:28.553Z,4.93
2018-11-12T03:10:58.228Z,4.80
2018-11-12T03:13:27.909Z,5.03
2018-11-12T03:15:57.574Z,5.10
2018-11-12T03:18:27.242Z,5.13
2018-11-12T03:21:07.096Z,5.13
2018-11-12T03:23:37.980Z,5.00
2018-11-12T03:26:07.585Z,4.03
2018-11-12T03:28:37.255Z,5.07
2018-11-12T03:31:06.738Z,4.60
2018-11-12T03:33:36.313Z,5.63
2018-11-12T03:36:05.727Z,4.90
2018-11-12T03:38:35.824Z,4.40
2018-11-12T03:41:05.232Z,4.33
2018-11-12T03:43:34.554Z,3.90
2018-11-12T03:46:04.368Z,4.50
2018-11-12T03:51:19.992Z,3.73
2018-11-12T03:53:49.851Z,4.50
2018-11-12T03:56:19.487Z,4.80
2018-11-12T03:59:02.013Z,4.30
2018-11-12T04:01:47.006Z,4.60
2018-11-12T04:04:17.844Z,5.23
2018-11-12T04:06:47.478Z,5.00
2018-11-12T04:09:16.985Z,5.43
2018-11-12T04:11:46.641Z,4.97
2018-11-12T04:14:16.341Z,5.27
2018-11-12T04:16:46.253Z,4.87
2018-11-12T04:19:15.886Z,5.63
2018-11-12T04:21:45.486Z,5.17
2018-11-12T04:24:15.081Z,5.17
2018-11-12T04:26:44.535Z,5.50
2018-11-12T04:29:14.408Z,4.97
2018-11-12T04:31:43.462Z,3.90
2018-11-12T04:34:13.051Z,4.30
2018-11-12T04:36:42.580Z,4.43
2018-11-12T04:39:14.209Z,5.37
2018-11-12T04:41:44.008Z,5.33
2018-11-12T04:44:13.707Z,5.23
2018-11-12T04:46:43.347Z,5.53
2018-11-12T04:49:12.942Z,5.97
2018-11-12T04:51:42.779Z,6.20
2018-11-12T04:54:12.120Z,5.97
2018-11-12T04:56:41.850Z,4.43
2018-11-12T05:01:54.422Z,5.00
2018-11-12T05:04:24.162Z,4.87
2018-11-12T05:06:53.784Z,4.80
2018-11-12T05:09:23.372Z,3.80
2018-11-12T05:11:52.887Z,4.23
2018-11-12T05:14:22.452Z,4.93
2018-11-12T05:16:52.201Z,4.43
2018-11-12T05:21:51.723Z,5.23
2018-11-12T05:27:10.059Z,4.87
2018-11-12T05:29:39.891Z,5.40
2018-11-12T05:32:09.607Z,4.33
2018-11-12T05:34:39.896Z,5.83
2018-11-12T05:37:09.456Z,5.17
2018-11-12T05:39:47.435Z,3.70
2018-11-12T05:42:17.086Z,4.40
2018-11-12T05:44:47.813Z,3.47
2018-11-12T05:47:17.780Z,4.33
2018-11-12T05:49:47.476Z,4.77
2018-11-12T05:52:17.516Z,4.30
2018-11-12T05:54:47.097Z,5.10
2018-11-12T05:57:16.785Z,4.83
2018-11-12T05:59:46.298Z,6.17
2018-11-12T06:02:15.995Z,4.60
2018-11-12T06:04:47.531Z,5.60
2018-11-12T06:07:30.058Z,5.07
2018-11-12T06:09:59.854Z,6.70
2018-11-12T06:12:29.768Z,5.90
2018-11-12T06:15:12.079Z,6.03
2018-11-12T06:20:33.359Z,5.13
2018-11-12T06:23:03.082Z,5.43
2018-11-12T06:25:35.345Z,5.43
2018-11-12T06:28:05.035Z,5.37
2018-11-12T06:30:37.240Z,4.33
2018-11-12T06:33:07.218Z,4.33
2018-11-12T06:35:36.924Z,4.97
2018-11-12T06:38:06.483Z,5.03
2018-11-12T06:40:35.930Z,4.60
2018-11-12T06:43:05.686Z,5.47
2018-11-12T06:45:35.215Z,4.67
2018-11-12T06:48:04.665Z,4.60
2018-11-12T06:50:34.712Z,4.83
2018-11-12T06:53:04.560Z,4.10
2018-11-12T06:55:34.540Z,4.97
2018-11-12T06:58:03.965Z,4.83
2018-11-12T07:00:34.610Z,4.53
2018-11-12T07:03:04.187Z,5.33
2018-11-12T07:05:34.221Z,4.70
2018-11-12T07:08:03.965Z,4.50
2018-11-12T07:10:33.622Z,4.07
2018-11-12T07:13:04.001Z,4.20
2018-11-12T07:15:33.858Z,5.00
2018-11-12T07:18:03.272Z,5.63
2018-11-12T07:20:32.729Z,5.53
2018-11-12T07:23:03.449Z,4.73
2018-11-12T07:25:33.019Z,5.23
2018-11-12T07:28:02.630Z,4.33
2018-11-12T07:30:32.286Z,5.67
2018-11-12T07:33:01.902Z,5.27
2018-11-12T07:35:31.481Z,5.10
2018-11-12T07:38:01.515Z,5.40
2018-11-12T07:40:31.038Z,4.30
2018-11-12T07:43:00.680Z,4.47
2018-11-12T07:45:30.445Z,3.47
2018-11-12T07:48:00.406Z,4.90
2018-11-12T07:50:31.202Z,4.83
2018-11-12T07:53:00.667Z,5.03
2018-11-12T07:55:30.836Z,4.50
2018-11-12T07:58:00.651Z,4.83
2018-11-12T08:00:31.716Z,4.80
2018-11-12T08:03:05.880Z,4.37
2018-11-12T08:05:35.436Z,4.80
2018-11-12T08:08:04.763Z,5.43
2018-11-12T08:10:34.425Z,4.50
2018-11-12T08:13:04.281Z,4.77
2018-11-12T08:15:33.900Z,4.80
2018-11-12T08:18:03.578Z,5.03
2018-11-12T08:20:33.322Z,5.23
2018-11-12T08:23:02.860Z,5.33
2018-11-12T08:25:32.900Z,5.47
2018-11-12T08:28:02.536Z,5.53
2018-11-12T08:30:32.434Z,4.77
2018-11-12T08:33:02.463Z,3.80
2018-11-12T08:35:32.129Z,5.33
2018-11-12T08:38:01.763Z,5.43
2018-11-12T08:40:31.614Z,4.97
2018-11-12T08:43:01.284Z,4.90
2018-11-12T08:45:32.035Z,5.77
2018-11-12T08:48:02.468Z,4.90
2018-11-12T08:50:32.304Z,4.60
2018-11-12T08:53:02.564Z,4.63
2018-11-12T08:55:32.385Z,5.67
2018-11-12T08:58:03.385Z,5.13
2018-11-12T09:00:33.178Z,4.37
2018-11-12T09:03:03.841Z,5.83
2018-11-12T09:05:33.606Z,6.00
2018-11-12T09:08:03.776Z,5.07
2018-11-12T09:10:34.607Z,5.53
2018-11-12T09:13:04.041Z,5.40
2018-11-12T09:15:33.900Z,5.13
2018-11-12T09:18:03.871Z,5.43
2018-11-12T09:20:33.460Z,5.03
2018-11-12T09:23:02.964Z,4.77
2018-11-12T09:25:32.679Z,5.40
2018-11-12T09:28:02.438Z,5.53
2018-11-12T09:30:32.065Z,3.20
2018-11-12T09:33:01.940Z,5.83
2018-11-12T09:35:33.247Z,5.20
2018-11-12T09:38:03.697Z,4.33
2018-11-12T09:40:35.487Z,5.27
2018-11-12T09:43:05.366Z,4.97
2018-11-12T09:45:35.053Z,5.10
2018-11-12T09:48:05.416Z,4.57
2018-11-12T09:50:35.508Z,4.93
2018-11-12T09:53:04.905Z,4.97
2018-11-12T09:55:34.561Z,3.90
2018-11-12T09:58:05.583Z,4.93
2018-11-12T10:00:35.461Z,3.80
2018-11-12T10:03:06.063Z,4.30
2018-11-12T10:05:36.274Z,4.10
2018-11-12T10:08:09.151Z,4.37
2018-11-12T10:10:41.620Z,3.87
2018-11-12T10:13:12.923Z,4.10
2018-11-12T10:15:43.519Z,4.00
2018-11-12T10:20:40.427Z,3.50
2018-11-12T10:23:10.139Z,4.03
2018-11-12T10:25:39.828Z,3.40
2018-11-12T10:28:09.700Z,4.10
2018-11-12T10:30:39.298Z,3.50
2018-11-12T10:33:08.836Z,3.50
2018-11-12T10:35:38.670Z,4.00
2018-11-12T10:38:09.016Z,3.87
2018-11-12T10:40:38.714Z,3.40
2018-11-12T10:43:08.688Z,3.30
2018-11-12T10:45:38.276Z,3.07
2018-11-12T10:48:08.421Z,3.40
2018-11-12T10:50:37.945Z,3.13
2018-11-12T10:53:07.603Z,2.80
2018-11-12T10:55:37.349Z,2.73
2018-11-12T10:58:08.543Z,2.90
2018-11-12T11:00:43.208Z,2.80
2018-11-12T11:03:18.638Z,2.70
2018-11-12T11:05:53.078Z,2.60
2018-11-12T11:08:24.074Z,2.37
2018-11-12T11:10:53.749Z,2.60
2018-11-12T11:13:23.522Z,2.80
2018-11-12T11:15:53.102Z,2.23
2018-11-12T11:21:28.643Z,2.20
2018-11-12T11:23:58.633Z,2.63
2018-11-12T11:26:28.251Z,2.00
2018-11-12T11:28:57.874Z,2.43
2018-11-12T11:31:27.531Z,2.27
2018-11-12T11:33:57.209Z,2.23
2018-11-12T11:36:26.879Z,2.07
2018-11-12T11:38:56.732Z,2.20
2018-11-12T11:41:26.306Z,1.97
2018-11-12T11:43:56.185Z,2.00
2018-11-12T11:46:26.731Z,2.70
2018-11-12T11:48:56.528Z,2.40
2018-11-12T11:51:26.937Z,2.47
2018-11-12T11:53:58.603Z,1.90
2018-11-12T11:56:28.223Z,1.90
2018-11-12T11:58:57.797Z,1.80
2018-11-12T12:01:27.412Z,1.60
2018-11-12T12:04:00.769Z,2.10
2018-11-12T12:06:31.424Z,1.77
2018-11-12T12:09:01.251Z,1.90
2018-11-12T12:11:31.475Z,1.50
2018-11-12T12:14:01.201Z,1.53
2018-11-12T12:16:30.976Z,1.60
2018-11-12T12:19:00.847Z,1.53
2018-11-12T12:24:01.140Z,1.53
2018-11-12T12:26:30.773Z,1.60
2018-11-12T12:29:00.697Z,1.20
2018-11-12T12:31:30.587Z,1.40
2018-11-12T12:34:00.518Z,1.33
2018-11-12T12:36:30.347Z,1.40
2018-11-12T12:38:59.771Z,1.17
2018-11-12T12:41:29.385Z,1.50
2018-11-12T12:43:59.044Z,1.57
2018-11-12T12:46:28.585Z,1.30
2018-11-12T12:48:58.406Z,1.37
2018-11-12T12:51:28.081Z,1.90
2018-11-12T12:53:57.649Z,1.40
2018-11-12T12:56:27.699Z,1.60
2018-11-12T12:58:57.541Z,1.60
2018-11-12T13:01:27.071Z,1.60
2018-11-12T13:03:57.321Z,1.70
2018-11-12T13:06:26.994Z,1.50
2018-11-12T13:08:56.728Z,1.80
2018-11-12T13:11:26.387Z,1.50
2018-11-12T13:13:56.143Z,1.47
2018-11-12T13:16:25.791Z,1.67
2018-11-12T13:18:55.375Z,1.60
2018-11-12T13:21:24.992Z,1.43
2018-11-12T13:23:54.885Z,1.43
2018-11-12T13:26:24.379Z,1.60
2018-11-12T13:28:53.995Z,1.50
2018-11-12T13:31:23.786Z,1.60
2018-11-12T13:33:53.717Z,1.50
2018-11-12T13:36:23.483Z,2.23
2018-11-12T13:38:53.047Z,1.60
2018-11-12T13:41:23.004Z,1.90
2018-11-12T13:43:52.791Z,1.43
2018-11-12T13:46:26.347Z,1.50
2018-11-12T13:48:56.263Z,1.23
2018-11-12T13:51:25.721Z,1.40
2018-11-12T13:53:55.311Z,1.63
2018-11-12T13:56:25.119Z,1.60
2018-11-12T13:58:55.174Z,1.43
2018-11-12T14:01:24.952Z,1.70
2018-11-12T14:03:54.828Z,1.73
2018-11-12T14:06:24.666Z,1.90
2018-11-12T14:08:54.811Z,1.83
2018-11-12T14:11:24.714Z,2.07
2018-11-12T14:13:54.533Z,1.93
2018-11-12T14:16:24.205Z,2.00
2018-11-12T14:18:54.338Z,2.00
2018-11-12T14:21:24.039Z,1.90
2018-11-12T14:23:53.616Z,2.20
2018-11-12T14:26:23.375Z,1.93
2018-11-12T14:28:52.894Z,2.10
2018-11-12T14:31:22.593Z,2.23
2018-11-12T14:33:52.328Z,2.13
2018-11-12T14:36:21.890Z,1.63
2018-11-12T14:38:52.211Z,2.23
2018-11-12T14:41:24.191Z,1.53
2018-11-12T14:43:58.966Z,2.00
2018-11-12T14:46:28.722Z,1.73
2018-11-12T14:48:58.288Z,2.27
2018-11-12T14:51:27.965Z,1.77
2018-11-12T14:53:57.502Z,1.93
2018-11-12T14:56:27.196Z,1.40
2018-11-12T14:58:57.009Z,1.70
2018-11-12T15:01:26.544Z,1.70
2018-11-12T15:03:56.186Z,2.17
2018-11-12T15:06:25.780Z,2.07
2018-11-12T15:08:55.480Z,1.70
2018-11-12T15:11:25.351Z,2.00
2018-11-12T15:13:55.117Z,2.00
2018-11-12T15:16:25.231Z,1.80
2018-11-12T15:18:55.079Z,1.60
2018-11-12T15:21:24.574Z,1.80
2018-11-12T15:23:54.600Z,2.03
2018-11-12T15:26:24.512Z,1.93
2018-11-12T15:28:54.743Z,1.60
2018-11-12T15:31:24.250Z,2.00
2018-11-12T15:33:53.815Z,1.77
2018-11-12T15:36:23.420Z,2.00
2018-11-12T15:38:52.957Z,2.10
2018-11-12T15:41:22.693Z,2.50
2018-11-12T15:43:52.620Z,2.30
2018-11-12T15:46:22.287Z,1.73
2018-11-12T15:48:51.794Z,2.10
2018-11-12T15:51:21.744Z,2.03
2018-11-12T15:53:51.357Z,2.37
2018-11-12T15:56:21.002Z,2.60
2018-11-12T15:58:50.635Z,2.60
2018-11-12T16:01:20.167Z,2.30
2018-11-12T16:03:50.050Z,2.87
2018-11-12T16:06:19.830Z,2.63
2018-11-12T16:08:53.054Z,2.20
2018-11-12T16:11:22.926Z,2.40
2018-11-12T16:13:53.884Z,2.07
2018-11-12T16:16:23.637Z,2.43
2018-11-12T16:18:53.662Z,2.60
2018-11-12T16:21:23.436Z,2.30
2018-11-12T16:23:52.917Z,2.03
2018-11-12T16:26:22.494Z,3.00
2018-11-12T16:28:52.519Z,2.33
2018-11-12T16:31:22.410Z,2.43
2018-11-12T16:33:52.480Z,2.60
2018-11-12T16:36:22.427Z,2.53
2018-11-12T16:38:52.129Z,8.07
2018-11-12T16:41:22.193Z,3.13
2018-11-12T16:43:52.711Z,3.57
2018-11-12T16:46:22.854Z,2.83
2018-11-12T16:48:53.669Z,2.70
2018-11-12T16:51:23.542Z,2.40
2018-11-12T16:53:53.377Z,2.63
2018-11-12T16:56:23.035Z,3.00
2018-11-12T16:58:52.829Z,2.63
2018-11-12T17:01:22.692Z,2.70
2018-11-12T17:03:52.674Z,2.97
2018-11-12T17:06:22.457Z,2.40
2018-11-12T17:08:52.143Z,2.87
2018-11-12T17:11:21.698Z,3.10
2018-11-12T17:13:51.413Z,3.07
2018-11-12T17:16:21.368Z,3.00
2018-11-12T17:18:51.152Z,2.47
2018-11-12T17:21:20.634Z,2.57
2018-11-12T17:23:50.263Z,1.80
2018-11-12T17:26:19.754Z,2.50
2018-11-12T17:28:49.350Z,2.37
2018-11-12T17:31:19.294Z,2.10
2018-11-12T17:33:49.329Z,1.93
2018-11-12T17:36:19.187Z,2.20
2018-11-12T17:38:49.027Z,2.43
2018-11-12T17:41:18.749Z,2.10
2018-11-12T17:43:48.445Z,2.50
2018-11-12T17:46:18.010Z,2.67
2018-11-12T17:48:47.777Z,2.00
2018-11-12T17:51:17.338Z,2.17
2018-11-12T17:53:47.008Z,2.40
2018-11-12T17:56:16.877Z,2.30
2018-11-12T17:58:46.485Z,1.63
2018-11-12T18:01:16.101Z,2.27
2018-11-12T18:03:45.673Z,1.80
2018-11-12T18:06:15.358Z,1.90
2018-11-12T18:08:45.052Z,2.33
2018-11-12T18:11:14.569Z,2.40
2018-11-12T18:13:44.309Z,2.70
2018-11-12T18:16:14.291Z,2.27
2018-11-12T18:18:43.938Z,2.13
2018-11-12T18:21:13.668Z,2.50
2018-11-12T18:23:43.567Z,2.17
2018-11-12T18:26:13.183Z,2.20
2018-11-12T18:28:42.873Z,2.37
2018-11-12T18:31:13.236Z,2.50
2018-11-12T18:33:42.719Z,2.73
2018-11-12T18:36:12.269Z,3.00
2018-11-12T18:38:41.895Z,1.80
2018-11-12T18:41:11.439Z,2.97
2018-11-12T18:43:41.370Z,2.60
2018-11-12T18:46:11.034Z,2.67
2018-11-12T18:48:40.669Z,3.53
2018-11-12T18:51:10.844Z,2.60
2018-11-12T18:53:40.656Z,2.73
2018-11-12T18:56:10.471Z,3.30
2018-11-12T18:58:40.089Z,2.80
2018-11-12T19:01:09.710Z,3.07
2018-11-12T19:03:39.267Z,3.43
2018-11-12T19:06:08.990Z,3.67
2018-11-12T19:08:38.675Z,3.90
2018-11-12T19:11:08.662Z,3.60
2018-11-12T19:13:38.426Z,3.30
2018-11-12T19:16:08.414Z,4.10
2018-11-12T19:18:38.098Z,3.07
2018-11-12T19:21:08.167Z,3.33
2018-11-12T19:23:37.822Z,3.73
2018-11-12T19:26:07.573Z,3.87
2018-11-12T19:28:37.434Z,3.93
2018-11-12T19:31:07.605Z,3.50
2018-11-12T19:33:37.286Z,3.80
2018-11-12T19:36:07.516Z,3.90
2018-11-12T19:38:36.921Z,4.20
2018-11-12T19:41:07.026Z,3.77
2018-11-12T19:43:36.595Z,4.00
2018-11-12T19:46:06.632Z,3.50
2018-11-12T19:48:36.001Z,3.80
2018-11-12T19:51:05.486Z,3.63
2018-11-12T19:53:35.027Z,4.17
2018-11-12T19:56:04.774Z,3.30
2018-11-12T19:58:34.364Z,3.67
2018-11-12T20:01:03.932Z,3.43
2018-11-12T20:03:33.774Z,3.97
2018-11-12T20:06:03.562Z,3.77
2018-11-12T20:08:33.324Z,3.63
2018-11-12T20:11:03.002Z,3.60
2018-11-12T20:13:33.256Z,4.00
2018-11-12T20:16:04.067Z,3.97
2018-11-12T20:18:33.679Z,3.57
2018-11-12T20:21:03.365Z,3.10
2018-11-12T20:23:33.748Z,4.10
2018-11-12T20:26:03.312Z,4.20
2018-11-12T20:28:33.405Z,3.60
2018-11-12T20:31:03.336Z,2.70
2018-11-12T20:33:32.843Z,3.40
2018-11-12T20:36:02.400Z,3.80
2018-11-12T20:38:32.088Z,3.63
2018-11-12T20:41:01.885Z,4.30
2018-11-12T20:43:31.714Z,3.40
2018-11-12T20:46:01.662Z,3.60
2018-11-12T20:48:31.316Z,3.57
2018-11-12T20:51:01.021Z,3.50
2018-11-12T20:53:31.234Z,3.57
2018-11-12T20:56:00.913Z,3.93
2018-11-12T20:58:31.067Z,3.80
2018-11-12T21:01:01.062Z,3.87
2018-11-12T21:03:30.879Z,3.57
2018-11-12T21:06:00.638Z,3.60
2018-11-12T21:08:30.350Z,3.93
2018-11-12T21:11:00.069Z,3.50
2018-11-12T21:13:29.582Z,4.07
2018-11-12T21:15:59.339Z,3.10
2018-11-12T21:18:28.927Z,3.70
2018-11-12T21:20:58.731Z,3.53
2018-11-12T21:23:29.039Z,3.93
2018-11-12T21:25:59.264Z,3.60
2018-11-12T21:28:29.423Z,3.80
2018-11-12T21:30:59.121Z,4.33
2018-11-12T21:33:29.102Z,3.80
2018-11-12T21:35:59.113Z,3.43
2018-11-12T21:38:28.915Z,3.80
2018-11-12T21:40:58.775Z,3.73
2018-11-12T21:43:28.622Z,3.53
2018-11-12T21:45:58.273Z,3.50
2018-11-12T21:48:27.921Z,3.50
2018-11-12T21:50:57.432Z,3.80
2018-11-12T21:53:27.341Z,3.30
2018-11-12T21:55:57.065Z,3.60
2018-11-12T21:58:27.032Z,3.50
2018-11-12T22:00:56.805Z,3.20
2018-11-12T22:03:26.613Z,3.40
2018-11-12T22:05:56.925Z,3.30
2018-11-12T22:08:26.755Z,3.33
2018-11-12T22:10:56.517Z,3.90
2018-11-12T22:13:26.178Z,3.33
2018-11-12T22:15:56.224Z,3.43
2018-11-12T22:18:27.385Z,3.20
2018-11-12T22:20:58.626Z,3.40
2018-11-12T22:23:28.432Z,3.60
2018-11-12T22:25:58.268Z,2.73
2018-11-12T22:28:28.567Z,2.90
2018-11-12T22:30:58.325Z,3.50
2018-11-12T22:33:28.047Z,3.47
2018-11-12T22:35:57.842Z,3.90
2018-11-12T22:38:28.414Z,3.43
2018-11-12T22:40:58.332Z,3.77
2018-11-12T22:43:27.885Z,4.27
2018-11-12T22:45:57.494Z,3.23
2018-11-12T22:48:27.419Z,2.83
2018-11-12T22:50:57.645Z,3.77
2018-11-12T22:53:27.437Z,2.80
2018-11-12T22:55:57.211Z,3.20
2018-11-12T22:58:27.337Z,3.20
2018-11-12T23:00:57.621Z,3.03
2018-11-12T23:03:27.762Z,2.93
2018-11-12T23:06:02.385Z,3.13
2018-11-12T23:08:31.958Z,3.30
2018-11-12T23:11:01.572Z,3.07
2018-11-12T23:13:31.152Z,2.90
2018-11-12T23:16:00.781Z,2.93
2018-11-12T23:18:30.456Z,3.10
2018-11-12T23:21:00.230Z,3.07
2018-11-12T23:23:30.269Z,3.30
2018-11-12T23:26:01.261Z,3.37
2018-11-12T23:28:30.865Z,2.83
2018-11-12T23:31:00.548Z,2.33
2018-11-12T23:33:29.968Z,2.67
2018-11-12T23:35:59.741Z,2.87
2018-11-12T23:38:29.801Z,2.97
2018-11-12T23:40:59.461Z,3.07
2018-11-12T23:43:30.187Z,3.20
2018-11-12T23:45:59.981Z,3.83
2018-11-12T23:48:30.076Z,3.07
2018-11-12T23:50:59.767Z,3.53
2018-11-12T23:53:29.557Z,3.80
2018-11-12T23:55:59.870Z,3.20
2018-11-12T23:58:29.664Z,2.73
